createdAt,value
2022-08-17T00:02:48.551Z,5.90
2022-08-17T00:06:14.423Z,6.28
2022-08-17T00:09:21.089Z,6.03
2022-08-17T00:12:40.764Z,6.00
2022-08-17T00:15:36.706Z,5.78
2022-08-17T00:19:06.512Z,6.03
2022-08-17T00:22:28.738Z,5.90
2022-08-17T00:25:03.304Z,5.90
2022-08-17T00:28:09.342Z,6.65
2022-08-17T00:31:16.527Z,6.40
2022-08-17T00:34:22.806Z,6.45
2022-08-17T00:37:29.669Z,6.37
2022-08-17T00:40:44.607Z,6.15
2022-08-17T00:44:07.823Z,6.22
2022-08-17T00:47:14.299Z,6.08
2022-08-17T00:50:23.613Z,6.00
2022-08-17T00:53:29.248Z,6.10
2022-08-17T00:56:38.809Z,5.92
2022-08-17T00:59:46.817Z,6.00
2022-08-17T01:02:56.512Z,6.28
2022-08-17T01:06:04.580Z,6.42
2022-08-17T01:09:12.582Z,6.42
2022-08-17T01:12:18.688Z,6.50
2022-08-17T01:15:24.907Z,6.00
2022-08-17T01:18:31.797Z,6.62
2022-08-17T01:21:57.811Z,6.40
2022-08-17T01:25:09.515Z,6.72
2022-08-17T01:28:36.401Z,6.42
2022-08-17T01:31:23.691Z,6.12
2022-08-17T01:34:43.968Z,7.42
2022-08-17T01:37:48.113Z,7.17
2022-08-17T01:40:57.688Z,6.20
2022-08-17T01:44:19.160Z,6.42
2022-08-17T01:47:24.941Z,6.67
2022-08-17T01:50:34.977Z,6.58
2022-08-17T01:53:49.826Z,6.67
2022-08-17T01:56:59.171Z,7.20
2022-08-17T02:00:04.816Z,6.65
2022-08-17T02:03:10.284Z,6.60
2022-08-17T02:06:27.462Z,6.50
2022-08-17T02:09:29.776Z,7.42
2022-08-17T02:12:38.865Z,5.85
2022-08-17T02:15:41.507Z,6.67
2022-08-17T02:18:47.211Z,7.08
2022-08-17T02:21:53.402Z,6.83
2022-08-17T02:25:02.095Z,6.85
2022-08-17T02:28:06.044Z,6.37
2022-08-17T02:31:11.995Z,6.72
2022-08-17T02:34:17.793Z,6.37
2022-08-17T02:37:25.615Z,6.80
2022-08-17T02:40:35.950Z,7.08
2022-08-17T02:43:38.678Z,6.03
2022-08-17T02:46:44.542Z,6.75
2022-08-17T02:49:55.474Z,6.33
2022-08-17T02:53:04.585Z,6.35
2022-08-17T02:56:10.410Z,6.45
2022-08-17T02:59:15.360Z,6.78
2022-08-17T03:02:22.137Z,6.97
2022-08-17T03:05:30.168Z,12.40
2022-08-17T03:08:37.002Z,9.55
2022-08-17T03:11:41.778Z,7.92
2022-08-17T03:14:47.103Z,7.65
2022-08-17T03:17:54.803Z,7.10
2022-08-17T03:21:02.008Z,7.17
2022-08-17T03:24:11.610Z,7.17
2022-08-17T03:27:20.767Z,6.60
2022-08-17T03:30:28.546Z,6.62
2022-08-17T03:33:34.539Z,7.08
2022-08-17T03:36:39.573Z,6.85
2022-08-17T03:39:47.315Z,6.87
2022-08-17T03:42:54.250Z,7.10
2022-08-17T03:46:33.829Z,7.12
2022-08-17T03:49:44.260Z,7.17
2022-08-17T03:53:07.578Z,7.30
2022-08-17T03:56:35.553Z,7.00
2022-08-17T03:59:40.555Z,6.90
2022-08-17T04:02:48.653Z,7.55
2022-08-17T04:05:55.116Z,6.62
2022-08-17T04:09:01.599Z,6.47
2022-08-17T04:12:08.051Z,6.72
2022-08-17T04:15:13.634Z,7.03
2022-08-17T04:18:19.557Z,7.00
2022-08-17T04:21:27.700Z,7.75
2022-08-17T04:24:36.935Z,6.85
2022-08-17T04:27:43.189Z,6.90
2022-08-17T04:30:54.040Z,7.55
2022-08-17T04:34:01.737Z,6.97
2022-08-17T04:37:09.401Z,8.03
2022-08-17T04:40:37.651Z,7.70
2022-08-17T04:43:48.692Z,8.10
2022-08-17T04:46:54.504Z,7.20
2022-08-17T04:50:01.271Z,8.35
2022-08-17T04:53:08.133Z,7.78
2022-08-17T04:56:18.919Z,8.33
2022-08-17T04:59:30.780Z,8.23
2022-08-17T05:02:38.385Z,8.43
2022-08-17T05:05:50.428Z,7.42
2022-08-17T05:08:56.442Z,7.83
2022-08-17T05:12:03.175Z,8.45
2022-08-17T05:15:08.892Z,8.15
2022-08-17T05:18:14.746Z,8.95
2022-08-17T05:21:21.804Z,8.73
2022-08-17T05:24:38.324Z,9.68
2022-08-17T05:30:57.794Z,11.05
2022-08-17T05:34:05.318Z,9.18
2022-08-17T05:37:10.147Z,8.75
2022-08-17T05:40:17.027Z,8.93
2022-08-17T05:43:34.922Z,9.05
2022-08-17T05:46:42.429Z,8.68
2022-08-17T05:49:50.448Z,8.85
2022-08-17T05:53:37.517Z,8.78
2022-08-17T05:57:00.356Z,9.03
2022-08-17T06:00:31.254Z,9.15
2022-08-17T06:04:05.527Z,8.38
2022-08-17T06:07:41.012Z,9.58
2022-08-17T06:11:05.484Z,8.78
2022-08-17T06:14:37.847Z,9.53
2022-08-17T06:17:43.744Z,9.15
2022-08-17T06:21:05.764Z,9.48
2022-08-17T06:24:19.461Z,9.80
2022-08-17T06:27:53.884Z,10.08
2022-08-17T06:31:03.901Z,10.05
2022-08-17T06:34:12.916Z,10.43
2022-08-17T06:37:42.787Z,10.43
2022-08-17T06:41:14.302Z,10.30
2022-08-17T06:44:50.194Z,9.68
2022-08-17T06:48:04.875Z,9.68
2022-08-17T06:51:36.987Z,9.68
2022-08-17T06:58:21.516Z,9.70
2022-08-17T07:01:28.617Z,9.63
2022-08-17T07:04:29.856Z,18.95
2022-08-17T07:07:40.733Z,9.80
2022-08-17T07:10:30.383Z,9.45
2022-08-17T07:13:51.843Z,14.73
2022-08-17T07:16:56.729Z,9.83
2022-08-17T07:20:03.578Z,9.48
2022-08-17T07:23:38.771Z,9.60
2022-08-17T07:26:45.502Z,9.18
2022-08-17T07:30:00.895Z,9.73
2022-08-17T07:33:24.425Z,9.43
2022-08-17T07:36:43.165Z,9.55
2022-08-17T07:40:14.802Z,9.43
2022-08-17T07:42:57.898Z,8.80
2022-08-17T07:46:51.791Z,9.25
2022-08-17T07:50:00.409Z,9.25
2022-08-17T07:53:06.984Z,9.13
2022-08-17T07:56:12.716Z,9.40
2022-08-17T07:59:33.848Z,8.18
2022-08-17T08:02:45.470Z,8.88
2022-08-17T08:05:50.124Z,8.60
2022-08-17T08:08:42.636Z,8.00
2022-08-17T08:11:44.479Z,9.28
2022-08-17T08:14:41.163Z,8.50
2022-08-17T08:17:30.596Z,9.58
2022-08-17T08:20:50.937Z,8.25
2022-08-17T08:23:58.141Z,7.92
2022-08-17T08:27:32.777Z,8.45
2022-08-17T08:30:39.647Z,10.30
2022-08-17T08:34:05.039Z,7.70
2022-08-17T08:37:35.577Z,8.25
2022-08-17T08:41:08.904Z,9.48
2022-08-17T08:44:22.016Z,7.62
2022-08-17T08:47:52.976Z,6.72
2022-08-17T08:51:23.260Z,6.92
2022-08-17T08:54:52.731Z,7.30
2022-08-17T08:58:32.068Z,6.97
2022-08-17T09:01:43.851Z,7.03
2022-08-17T09:05:33.008Z,7.00
2022-08-17T09:09:03.721Z,7.33
2022-08-17T09:12:33.280Z,7.50
2022-08-17T09:15:49.177Z,7.77
2022-08-17T09:19:04.452Z,7.47
2022-08-17T09:22:22.571Z,7.75
2022-08-17T09:25:48.769Z,7.58
2022-08-17T09:32:21.337Z,8.43
2022-08-17T09:35:37.442Z,6.97
2022-08-17T09:38:48.874Z,7.90
2022-08-17T09:42:11.746Z,7.15
2022-08-17T09:45:40.851Z,7.58
2022-08-17T09:48:55.476Z,7.58
2022-08-17T09:52:06.036Z,7.50
2022-08-17T09:55:12.804Z,7.65
2022-08-17T09:58:29.131Z,8.05
2022-08-17T10:01:53.887Z,7.33
2022-08-17T10:05:29.858Z,8.08
2022-08-17T10:08:45.708Z,7.37
2022-08-17T10:12:17.379Z,9.08
2022-08-17T10:15:32.167Z,7.15
2022-08-17T10:19:09.229Z,7.97
2022-08-17T10:22:35.120Z,8.18
2022-08-17T10:25:56.154Z,7.60
2022-08-17T10:29:26.997Z,8.10
2022-08-17T10:32:59.858Z,8.27
2022-08-17T10:36:19.051Z,8.35
2022-08-17T10:40:01.159Z,8.40
2022-08-17T10:43:18.537Z,7.80
2022-08-17T10:46:42.507Z,7.97
2022-08-17T10:49:59.428Z,8.63
2022-08-17T10:53:19.437Z,8.05
2022-08-17T10:56:34.571Z,6.97
2022-08-17T10:59:54.630Z,8.90
2022-08-17T11:03:11.519Z,8.03
2022-08-17T11:06:23.830Z,7.33
2022-08-17T11:10:13.898Z,9.10
2022-08-17T11:13:36.392Z,7.97
2022-08-17T11:17:23.692Z,7.90
2022-08-17T11:21:17.125Z,8.03
2022-08-17T11:24:38.236Z,8.00
2022-08-17T11:27:48.060Z,7.40
2022-08-17T11:31:10.741Z,8.15
2022-08-17T11:34:30.499Z,8.35
2022-08-17T11:37:59.534Z,7.62
2022-08-17T11:41:21.147Z,7.55
2022-08-17T11:45:09.280Z,8.40
2022-08-17T11:49:00.646Z,7.28
2022-08-17T11:52:21.153Z,7.62
2022-08-17T11:55:46.888Z,7.60
2022-08-17T11:58:59.942Z,8.33
2022-08-17T12:02:09.749Z,7.87
2022-08-17T12:05:34.167Z,7.25
2022-08-17T12:08:40.966Z,8.33
2022-08-17T12:12:13.035Z,7.40
2022-08-17T12:15:11.049Z,7.67
2022-08-17T12:18:15.766Z,8.03
2022-08-17T12:21:45.987Z,6.75
2022-08-17T12:25:20.692Z,7.35
2022-08-17T12:28:41.362Z,7.60
2022-08-17T12:31:54.635Z,7.08
2022-08-17T12:35:10.852Z,6.65
2022-08-17T12:38:28.156Z,6.85
2022-08-17T12:41:35.970Z,6.90
2022-08-17T12:44:53.409Z,7.08
2022-08-17T12:48:00.103Z,7.22
2022-08-17T12:51:11.334Z,6.95
2022-08-17T12:54:18.930Z,7.83
2022-08-17T12:57:29.671Z,7.62
2022-08-17T13:00:47.700Z,7.05
2022-08-17T13:04:01.031Z,7.45
2022-08-17T13:10:13.399Z,6.83
2022-08-17T13:13:39.176Z,6.45
2022-08-17T13:16:45.081Z,6.35
2022-08-17T13:19:53.798Z,6.90
2022-08-17T13:23:02.562Z,6.53
2022-08-17T13:26:17.350Z,6.53
2022-08-17T13:29:53.254Z,6.42
2022-08-17T13:33:04.775Z,6.53
2022-08-17T13:36:12.718Z,6.50
2022-08-17T13:39:35.762Z,6.55
2022-08-17T13:43:01.115Z,6.03
2022-08-17T13:46:08.508Z,5.87
2022-08-17T13:49:21.351Z,6.28
2022-08-17T13:52:55.314Z,6.65
2022-08-17T13:56:37.117Z,6.35
2022-08-17T13:59:53.900Z,7.33
2022-08-17T14:02:40.348Z,7.12
2022-08-17T14:05:47.081Z,8.38
2022-08-17T14:08:53.047Z,6.87
2022-08-17T14:12:01.534Z,6.53
2022-08-17T14:15:08.935Z,5.97
2022-08-17T14:18:14.716Z,6.60
2022-08-17T14:21:22.318Z,5.95
2022-08-17T14:24:45.091Z,6.62
2022-08-17T14:27:52.852Z,6.20
2022-08-17T14:30:59.226Z,5.45
2022-08-17T14:34:06.219Z,5.25
2022-08-17T14:37:11.162Z,5.60
2022-08-17T14:40:22.339Z,5.33
2022-08-17T14:43:29.611Z,5.72
2022-08-17T14:46:36.102Z,5.83
2022-08-17T14:49:43.403Z,6.85
2022-08-17T14:52:56.231Z,6.72
2022-08-17T14:56:08.479Z,5.75
2022-08-17T14:59:14.280Z,5.00
2022-08-17T15:02:20.919Z,6.40
2022-08-17T15:05:26.880Z,6.78
2022-08-17T15:08:34.628Z,6.40
2022-08-17T15:11:41.826Z,6.37
2022-08-17T15:14:51.857Z,6.83
2022-08-17T15:17:58.985Z,6.47
2022-08-17T15:21:05.616Z,7.00
2022-08-17T15:24:14.272Z,6.47
2022-08-17T15:27:32.280Z,7.25
2022-08-17T15:30:33.950Z,7.37
2022-08-17T15:33:41.523Z,7.22
2022-08-17T15:36:49.381Z,8.80
2022-08-17T15:39:53.926Z,9.58
2022-08-17T15:43:01.063Z,9.20
2022-08-17T15:46:21.783Z,8.80
2022-08-17T15:49:28.476Z,9.08
2022-08-17T15:52:42.298Z,18.27
2022-08-17T15:55:51.596Z,13.70
2022-08-17T15:59:03.446Z,12.23
2022-08-17T16:03:14.277Z,10.88
2022-08-17T16:05:25.247Z,10.08
2022-08-17T16:08:36.235Z,10.40
2022-08-17T16:11:44.645Z,10.08
2022-08-17T16:14:53.237Z,10.60
2022-08-17T16:18:00.733Z,11.00
2022-08-17T16:21:09.293Z,11.78
2022-08-17T16:24:17.584Z,21.35
2022-08-17T16:27:24.330Z,12.90
2022-08-17T16:30:30.306Z,9.50
2022-08-17T16:33:37.308Z,8.80
2022-08-17T16:36:55.332Z,8.30
2022-08-17T16:39:52.518Z,9.28
2022-08-17T16:42:58.215Z,9.98
2022-08-17T16:46:07.943Z,9.00
2022-08-17T16:49:35.921Z,8.28
2022-08-17T16:52:32.309Z,7.37
2022-08-17T16:55:36.562Z,7.30
2022-08-17T16:58:44.213Z,8.90
2022-08-17T17:01:51.900Z,7.92
2022-08-17T17:05:09.703Z,8.70
2022-08-17T17:08:23.407Z,7.85
2022-08-17T17:11:45.257Z,7.60
2022-08-17T17:15:00.209Z,8.20
2022-08-17T17:18:08.221Z,10.40
2022-08-17T17:21:12.935Z,32.83
2022-08-17T17:24:23.373Z,29.75
2022-08-17T17:27:55.323Z,37.58
2022-08-17T17:31:13.832Z,32.40
2022-08-17T17:34:20.460Z,27.15
2022-08-17T17:37:31.137Z,24.47
2022-08-17T17:40:49.745Z,24.95
2022-08-17T17:43:56.063Z,19.35
2022-08-17T17:47:14.821Z,10.75
2022-08-17T17:50:21.877Z,11.40
2022-08-17T17:53:43.058Z,9.63
2022-08-17T17:56:59.544Z,8.35
2022-08-17T18:00:22.752Z,8.13
2022-08-17T18:03:59.415Z,6.83
2022-08-17T18:07:26.588Z,7.33
2022-08-17T18:10:43.161Z,6.25
2022-08-17T18:14:29.897Z,6.45
2022-08-17T18:17:37.279Z,6.25
2022-08-17T18:20:53.744Z,6.35
2022-08-17T18:23:54.544Z,6.20
2022-08-17T18:27:09.417Z,6.67
2022-08-17T18:30:30.070Z,6.85
2022-08-17T18:33:37.766Z,6.90
2022-08-17T18:36:47.848Z,7.30
2022-08-17T18:39:55.484Z,8.70
2022-08-17T18:43:04.402Z,10.55
2022-08-17T18:46:11.974Z,8.75
2022-08-17T18:49:21.905Z,6.87
2022-08-17T18:52:44.817Z,7.10
2022-08-17T18:55:51.173Z,7.03
2022-08-17T18:58:56.264Z,6.55
2022-08-17T19:02:38.750Z,6.87
2022-08-17T19:05:48.882Z,7.03
2022-08-17T19:08:56.572Z,6.58
2022-08-17T19:12:02.557Z,13.15
2022-08-17T19:15:08.554Z,23.10
2022-08-17T19:18:30.741Z,26.05
2022-08-17T19:21:44.040Z,28.65
2022-08-17T19:24:53.155Z,14.43
2022-08-17T19:28:21.508Z,9.33
2022-08-17T19:31:24.775Z,8.60
2022-08-17T19:34:33.990Z,8.28
2022-08-17T19:37:56.966Z,7.42
2022-08-17T19:41:24.700Z,6.87
2022-08-17T19:45:06.959Z,7.25
2022-08-17T19:48:36.724Z,14.60
2022-08-17T19:52:09.086Z,7.67
2022-08-17T19:55:44.781Z,7.92
2022-08-17T19:59:08.670Z,8.40
2022-08-17T20:02:28.862Z,8.78
2022-08-17T20:06:08.878Z,8.58
2022-08-17T20:08:55.919Z,8.23
2022-08-17T20:12:08.037Z,8.43
2022-08-17T20:15:18.691Z,7.83
2022-08-17T20:18:29.300Z,7.80
2022-08-17T20:22:16.980Z,7.78
2022-08-17T20:25:30.549Z,7.62
2022-08-17T20:28:46.667Z,7.80
2022-08-17T20:32:08.543Z,8.65
2022-08-17T20:38:29.407Z,7.70
2022-08-17T20:41:38.241Z,8.43
2022-08-17T20:44:49.415Z,8.80
2022-08-17T20:51:33.801Z,8.80
2022-08-17T20:55:10.673Z,8.73
2022-08-17T20:58:32.410Z,9.68
2022-08-17T21:01:52.122Z,8.73
2022-08-17T21:05:12.273Z,8.63
2022-08-17T21:08:30.840Z,9.63
2022-08-17T21:11:58.247Z,9.68
2022-08-17T21:15:18.285Z,8.85
2022-08-17T21:18:51.790Z,9.83
2022-08-17T21:22:21.397Z,10.18
2022-08-17T21:25:58.996Z,9.98
2022-08-17T21:29:31.936Z,10.00
2022-08-17T21:32:33.307Z,10.58
2022-08-17T21:35:42.275Z,10.23
2022-08-17T21:39:03.911Z,10.13
2022-08-17T21:42:11.414Z,11.25
2022-08-17T21:45:37.542Z,10.90
2022-08-17T21:48:44.824Z,10.30
2022-08-17T21:52:06.047Z,10.53
2022-08-17T21:55:14.147Z,10.53
2022-08-17T21:58:26.676Z,10.20
2022-08-17T22:01:54.740Z,9.73
2022-08-17T22:05:15.029Z,10.60
2022-08-17T22:08:33.603Z,10.25
2022-08-17T22:11:41.614Z,10.90
2022-08-17T22:23:35.833Z,10.98
2022-08-17T22:27:02.572Z,10.53
2022-08-17T22:30:13.151Z,10.68
2022-08-17T22:34:05.695Z,10.48
2022-08-17T22:40:40.148Z,9.45
2022-08-17T22:43:46.807Z,10.05
2022-08-17T22:46:57.590Z,9.90
2022-08-17T22:50:17.061Z,10.30
2022-08-17T22:53:53.742Z,9.18
2022-08-17T22:57:35.235Z,9.78
2022-08-17T23:00:58.194Z,9.85
2022-08-17T23:04:12.851Z,8.78
2022-08-17T23:07:18.613Z,9.18
2022-08-17T23:10:25.898Z,10.03
2022-08-17T23:13:33.561Z,9.93
2022-08-17T23:16:41.201Z,9.25
2022-08-17T23:19:47.160Z,9.88
2022-08-17T23:22:53.301Z,9.88
2022-08-17T23:26:01.858Z,9.25
2022-08-17T23:29:09.006Z,9.65
2022-08-17T23:32:16.330Z,10.35
2022-08-17T23:35:39.062Z,9.73
2022-08-17T23:38:33.255Z,9.73
2022-08-17T23:41:39.513Z,8.68
2022-08-17T23:44:45.444Z,9.63
2022-08-17T23:47:50.852Z,9.63
2022-08-17T23:50:58.569Z,9.73
2022-08-17T23:54:13.495Z,9.93
2022-08-17T23:57:19.485Z,9.65
